Time;durP1;ratioP1;P1;durP2;ratioP2;P2;SDS_P1;SDS_P2;PMS_P1;PMS_P2;Temp;Humidity;BMP_temperature;BMP_pressure;BME280_temperature;BME280_humidity;BME280_pressure;Samples;Min_cycle;Max_cycle;Signal;HPM_P1;HPM_P2
2023/12/26 00:01:12;;;;;;;1.52;1.40;;;;;;;11.58;90.85;100546.75;5083565;28;20020;-65
2023/12/26 00:03:37;;;;;;;1.58;1.10;;;;;;;11.49;90.93;100536.13;5079180;28;20242;-65
2023/12/26 00:06:03;;;;;;;2.25;1.00;;;;;;;11.48;91.16;100534.47;5076699;28;20033;-65
2023/12/26 00:08:28;;;;;;;1.10;0.93;;;;;;;11.48;91.24;100531.69;5076740;28;20048;-64
2023/12/26 00:10:53;;;;;;;2.63;1.35;;;;;;;11.49;91.37;100541.69;5081515;28;20873;-66
2023/12/26 00:13:19;;;;;;;1.98;0.98;;;;;;;11.48;91.30;100536.41;5078427;28;20032;-66
2023/12/26 00:15:44;;;;;;;2.15;1.15;;;;;;;11.47;91.16;100531.94;5076781;28;20235;-66
2023/12/26 00:18:10;;;;;;;2.50;1.17;;;;;;;11.50;91.45;100536.97;5075012;28;20475;-66
2023/12/26 00:20:39;;;;;;;1.92;1.20;;;;;;;11.49;91.05;100538.91;5077742;28;20020;-65
2023/12/26 00:23:05;;;;;;;1.23;1.00;;;;;;;11.44;90.72;100540.81;5081604;28;20353;-63
2023/12/26 00:25:30;;;;;;;2.17;1.10;;;;;;;11.49;91.23;100543.63;5074915;28;20040;-64
2023/12/26 00:27:56;;;;;;;1.77;1.00;;;;;;;11.44;90.90;100527.75;5071709;28;20178;-64
2023/12/26 00:30:21;;;;;;;2.33;1.20;;;;;;;11.43;91.17;100534.41;5072099;28;20033;-64
2023/12/26 00:32:46;;;;;;;1.48;1.10;;;;;;;11.44;90.55;100538.03;5077788;28;20024;-64
2023/12/26 00:35:13;;;;;;;1.70;1.00;;;;;;;11.41;90.52;100533.84;5073838;28;20107;-64
2023/12/26 00:37:39;;;;;;;3.28;1.00;;;;;;;11.41;90.90;100531.06;5073875;28;20028;-64
2023/12/26 00:40:08;;;;;;;2.53;1.00;;;;;;;11.42;90.67;100535.50;5072908;28;20058;-64
2023/12/26 00:42:33;;;;;;;1.48;1.00;;;;;;;11.41;90.58;100539.41;5087962;28;20035;-64
2023/12/26 00:44:58;;;;;;;1.48;1.00;;;;;;;11.40;90.77;100543.28;5085696;28;20032;-64
2023/12/26 00:47:24;;;;;;;1.65;1.05;;;;;;;11.41;90.43;100547.75;5075688;28;20023;-64
2023/12/26 00:49:49;;;;;;;1.58;0.90;;;;;;;11.35;90.60;100553.50;5084691;28;20104;-64
2023/12/26 00:52:15;;;;;;;0.70;0.70;;;;;;;11.36;90.92;100558.81;5082512;28;20144;-64
2023/12/26 00:54:40;;;;;;;1.98;1.00;;;;;;;11.39;90.92;100547.16;5078957;28;20036;-64
2023/12/26 00:57:06;;;;;;;3.30;0.90;;;;;;;11.40;90.43;100557.19;5078164;28;20032;-64
2023/12/26 00:59:33;;;;;;;2.70;1.00;;;;;;;11.39;90.72;100561.06;5075820;28;20029;-64
2023/12/26 01:02:01;;;;;;;1.98;0.88;;;;;;;11.30;90.76;100571.81;5080397;28;20387;-64
2023/12/26 01:04:27;;;;;;;1.92;0.90;;;;;;;11.32;90.92;100566.03;5074013;28;20430;-64
2023/12/26 01:06:53;;;;;;;1.15;0.75;;;;;;;11.31;90.85;100567.09;5085015;28;20036;-64
2023/12/26 01:09:18;;;;;;;1.13;0.90;;;;;;;11.35;90.86;100575.75;5079400;28;20020;-64
2023/12/26 01:11:44;;;;;;;1.75;1.00;;;;;;;11.33;90.47;100566.84;5080316;28;20071;-64
2023/12/26 01:14:10;;;;;;;1.08;0.70;;;;;;;11.34;91.07;100563.78;5086406;28;20031;-64
2023/12/26 01:16:37;;;;;;;2.65;1.27;;;;;;;11.37;90.92;100563.28;5074362;28;20024;-63
2023/12/26 01:19:02;;;;;;;1.52;0.70;;;;;;;11.39;90.79;100582.44;5075594;28;20058;-64
2023/12/26 01:21:27;;;;;;;1.73;0.80;;;;;;;11.36;90.50;100569.06;5084391;28;20036;-64
2023/12/26 01:23:55;;;;;;;1.08;0.77;;;;;;;11.33;90.68;100561.28;5076441;28;20464;-64
2023/12/26 01:26:20;;;;;;;0.80;0.80;;;;;;;11.35;90.58;100570.19;5077347;28;20036;-64
2023/12/26 01:28:45;;;;;;;1.55;0.88;;;;;;;11.37;90.23;100566.06;5082817;28;20051;-64
2023/12/26 01:31:11;;;;;;;0.93;0.90;;;;;;;11.40;90.82;100573.03;5083331;28;20127;-64
2023/12/26 01:33:36;;;;;;;1.00;0.90;;;;;;;11.39;90.25;100566.59;5073905;28;20033;-64
2023/12/26 01:36:02;;;;;;;2.03;1.02;;;;;;;11.40;90.34;100578.59;5081896;28;20036;-64
2023/12/26 01:38:27;;;;;;;1.30;1.20;;;;;;;11.40;90.32;100576.66;5082939;28;20048;-64
2023/12/26 01:40:53;;;;;;;1.70;1.10;;;;;;;11.39;90.59;100590.78;5071528;28;20024;-64
2023/12/26 01:43:18;;;;;;;1.13;1.00;;;;;;;11.40;90.49;100584.97;5072315;28;20024;-64
2023/12/26 01:45:44;;;;;;;1.23;1.13;;;;;;;11.38;90.38;100586.34;5075600;28;20043;-64
2023/12/26 01:48:11;;;;;;;2.40;1.30;;;;;;;11.32;90.75;100591.03;5087043;28;20024;-64
2023/12/26 01:50:37;;;;;;;1.50;1.40;;;;;;;11.34;90.82;100591.59;5085663;28;20036;-64
2023/12/26 01:53:03;;;;;;;1.65;1.50;;;;;;;11.34;90.78;100591.59;5073506;28;20020;-64
2023/12/26 01:55:30;;;;;;;1.85;1.45;;;;;;;11.36;90.52;100594.94;5076233;28;20024;-64
2023/12/26 01:57:57;;;;;;;1.88;1.60;;;;;;;11.39;90.62;100594.41;5083732;28;20058;-64
2023/12/26 02:00:23;;;;;;;2.72;1.58;;;;;;;11.38;90.76;100609.41;5089529;28;20028;-63
2023/12/26 02:02:51;;;;;;;2.42;1.30;;;;;;;11.40;90.74;100611.94;5075077;28;20024;-64
2023/12/26 02:05:16;;;;;;;1.40;1.10;;;;;;;11.39;90.12;100604.69;5086012;28;20020;-64
2023/12/26 02:07:44;;;;;;;1.23;1.20;;;;;;;11.39;90.45;100613.00;5080632;28;20086;-64
2023/12/26 02:10:09;;;;;;;1.38;1.13;;;;;;;11.35;90.16;100604.38;5082495;28;20020;-64
2023/12/26 02:12:41;;;;;;;1.20;1.10;;;;;;;11.37;90.40;100621.63;5081438;28;20027;-64
2023/12/26 02:15:07;;;;;;;1.10;1.00;;;;;;;11.34;90.29;100624.94;5073746;28;20383;-64
2023/12/26 02:17:36;;;;;;;2.20;0.90;;;;;;;11.36;90.68;100621.88;5080138;28;20107;-64
2023/12/26 02:20:02;;;;;;;1.75;0.90;;;;;;;11.34;90.27;100619.38;5084291;28;20030;-64
2023/12/26 02:22:29;;;;;;;1.83;1.17;;;;;;;11.35;90.29;100622.97;5081240;28;20596;-64
2023/12/26 02:24:54;;;;;;;2.13;0.90;;;;;;;11.38;90.44;100616.91;5072729;28;20111;-64
2023/12/26 02:27:24;;;;;;;2.03;1.00;;;;;;;11.40;90.20;100626.66;5073239;28;20420;-64
2023/12/26 02:29:52;;;;;;;1.25;1.00;;;;;;;11.37;90.27;100620.78;5071768;28;20032;-64
2023/12/26 02:32:25;;;;;;;1.70;1.02;;;;;;;11.40;90.34;100631.38;5073812;28;20475;-64
2023/12/26 02:34:55;;;;;;;1.15;0.70;;;;;;;11.35;90.31;100628.53;5077840;28;20060;-64
2023/12/26 02:37:22;;;;;;;0.98;0.98;;;;;;;11.38;90.06;100620.53;5074807;28;20490;-64
2023/12/26 02:39:50;;;;;;;1.10;1.05;;;;;;;11.38;90.15;100631.63;5081798;28;20034;-64
2023/12/26 02:42:19;;;;;;;0.70;0.70;;;;;;;11.39;90.17;100619.41;5085266;28;20139;-64
2023/12/26 02:44:44;;;;;;;1.20;1.10;;;;;;;11.38;90.24;100630.81;5088826;28;20384;-64
2023/12/26 02:47:09;;;;;;;2.15;1.05;;;;;;;11.39;89.98;100633.31;5078504;28;20032;-63
2023/12/26 02:49:35;;;;;;;1.27;1.00;;;;;;;11.39;90.05;100626.91;5086810;28;20043;-64
2023/12/26 02:52:05;;;;;;;1.02;1.00;;;;;;;11.40;90.33;100618.31;5078179;28;20021;-64
2023/12/26 02:54:30;;;;;;;1.23;1.10;;;;;;;11.34;89.79;100624.09;5071057;28;20037;-64
2023/12/26 02:56:55;;;;;;;1.80;1.35;;;;;;;11.34;90.27;100636.03;5082392;28;20024;-64
2023/12/26 02:59:21;;;;;;;1.30;1.30;;;;;;;11.34;90.49;100636.03;5071260;28;20108;-64
2023/12/26 03:01:46;;;;;;;1.58;1.48;;;;;;;11.36;90.48;100633.84;5071798;28;20383;-64
2023/12/26 03:04:15;;;;;;;1.95;1.30;;;;;;;11.36;90.71;100633.84;5079506;28;20028;-64
2023/12/26 03:06:40;;;;;;;1.80;1.70;;;;;;;11.36;90.21;100646.88;5081703;28;20024;-62
2023/12/26 03:09:06;;;;;;;1.88;1.55;;;;;;;11.33;90.64;100651.03;5083870;28;20111;-64
2023/12/26 03:11:38;;;;;;;1.60;1.50;;;;;;;11.31;90.31;100675.47;5085612;28;20066;-65
2023/12/26 03:14:03;;;;;;;2.20;2.00;;;;;;;11.31;90.50;100683.78;5077639;28;20042;-64
2023/12/26 03:16:28;;;;;;;3.25;2.28;;;;;;;11.29;90.11;100675.75;5080301;28;20022;-64
2023/12/26 03:18:54;;;;;;;2.50;2.30;;;;;;;11.30;89.46;100674.63;5081338;28;20036;-64
2023/12/26 03:21:20;;;;;;;4.00;2.47;;;;;;;11.28;89.47;100670.47;5079878;28;20030;-64
2023/12/26 03:23:49;;;;;;;4.57;2.60;;;;;;;11.27;88.98;100677.91;5073104;28;20099;-64
2023/12/26 03:26:15;;;;;;;3.83;2.17;;;;;;;11.27;88.67;100685.44;5077359;28;20498;-64
2023/12/26 03:28:40;;;;;;;3.97;2.58;;;;;;;11.27;88.61;100686.25;5073525;28;20040;-64
2023/12/26 03:31:08;;;;;;;4.32;2.75;;;;;;;11.28;88.46;100687.13;5077412;28;20024;-64
2023/12/26 03:33:37;;;;;;;4.47;2.85;;;;;;;11.27;88.53;100685.44;5085185;28;20032;-64
2023/12/26 03:36:04;;;;;;;2.95;2.35;;;;;;;11.31;88.84;100681.03;5082869;28;20043;-64
2023/12/26 03:38:29;;;;;;;3.88;2.63;;;;;;;11.33;88.34;100680.78;5075785;28;20101;-64
2023/12/26 03:40:55;;;;;;;5.68;2.80;;;;;;;11.30;88.25;100687.69;5077175;28;20424;-64
2023/12/26 03:43:20;;;;;;;5.90;3.05;;;;;;;11.30;88.17;100687.69;5076768;28;20499;-64
2023/12/26 03:45:46;;;;;;;4.68;2.72;;;;;;;11.30;88.25;100696.03;5073908;28;20541;-64
2023/12/26 03:48:11;;;;;;;5.40;2.60;;;;;;;11.31;88.24;100697.69;5086641;28;20020;-64
2023/12/26 03:50:38;;;;;;;5.25;2.67;;;;;;;11.26;88.15;100687.38;5091004;28;20086;-64
2023/12/26 03:53:03;;;;;;;4.60;2.50;;;;;;;11.24;87.87;100697.09;5076854;28;20031;-65
2023/12/26 03:55:29;;;;;;;4.55;2.20;;;;;;;11.25;88.08;100693.19;5080010;28;20032;-64
2023/12/26 03:57:54;;;;;;;3.70;2.00;;;;;;;11.29;88.14;100702.69;5079487;28;20024;-64
2023/12/26 04:00:20;;;;;;;4.65;2.20;;;;;;;11.31;88.16;100703.25;5075902;28;20033;-65
2023/12/26 04:02:45;;;;;;;3.85;1.90;;;;;;;11.33;88.09;100711.34;5082388;28;20027;-64
2023/12/26 04:05:10;;;;;;;5.82;2.40;;;;;;;11.30;87.75;100694.06;5073353;28;20467;-64
2023/12/26 04:07:37;;;;;;;4.22;2.33;;;;;;;11.30;88.06;100718.25;5083349;28;20073;-64
2023/12/26 04:10:03;;;;;;;8.57;2.40;;;;;;;11.30;87.46;100726.59;5075170;28;20104;-64
2023/12/26 04:12:29;;;;;;;4.30;1.90;;;;;;;11.27;87.52;100741.00;5082431;28;20058;-65
2023/12/26 04:14:54;;;;;;;5.78;1.88;;;;;;;11.29;87.45;100738.81;5076237;28;20061;-64
2023/12/26 04:17:21;;;;;;;4.40;1.73;;;;;;;11.31;87.55;100733.81;5075034;28;20541;-64
2023/12/26 04:19:47;;;;;;;5.82;1.92;;;;;;;11.31;87.15;100740.22;5084868;28;20039;-64
2023/12/26 04:22:13;;;;;;;3.80;1.80;;;;;;;11.31;86.89;100734.66;5083865;28;20089;-64
2023/12/26 04:24:38;;;;;;;6.85;2.17;;;;;;;11.31;86.74;100736.59;5088922;28;20020;-64
2023/12/26 04:27:08;;;;;;;8.70;2.20;;;;;;;11.33;86.53;100739.13;5079470;28;20032;-63
2023/12/26 04:29:33;;;;;;;4.97;1.58;;;;;;;11.27;86.31;100739.06;5088133;28;20524;-64
2023/12/26 04:31:59;;;;;;;5.05;1.52;;;;;;;11.30;86.31;100740.47;5087209;28;20071;-64
2023/12/26 04:34:25;;;;;;;5.43;1.38;;;;;;;11.23;85.32;100746.22;5076763;28;20028;-64
2023/12/26 04:36:50;;;;;;;5.55;1.42;;;;;;;11.23;85.08;100742.63;5072289;28;20438;-64
2023/12/26 04:39:16;;;;;;;3.67;1.33;;;;;;;11.23;85.24;100742.63;5079837;28;20027;-65
2023/12/26 04:41:41;;;;;;;8.40;1.27;;;;;;;11.22;84.87;100752.06;5077648;28;20040;-65
2023/12/26 04:44:06;;;;;;;7.18;1.88;;;;;;;11.21;85.00;100767.06;5077117;28;20058;-65
2023/12/26 04:46:32;;;;;;;5.95;1.60;;;;;;;11.22;84.29;100771.50;5082682;28;20035;-65
2023/12/26 04:48:57;;;;;;;6.13;1.50;;;;;;;11.20;83.98;100779.25;5072863;28;20028;-65
2023/12/26 04:51:23;;;;;;;8.40;1.90;;;;;;;11.25;84.46;100782.09;5073989;28;20024;-65
2023/12/26 04:53:49;;;;;;;4.70;1.20;;;;;;;11.23;83.93;100779.56;5081367;28;20020;-65
2023/12/26 04:56:21;;;;;;;7.80;1.58;;;;;;;11.17;83.19;100779.78;5078395;28;20537;-63
2023/12/26 04:58:49;;;;;;;5.18;1.70;;;;;;;11.21;83.38;100775.38;5077651;28;20051;-63
2023/12/26 05:01:15;;;;;;;6.38;1.75;;;;;;;11.21;82.98;100789.28;5080235;28;20107;-63
2023/12/26 05:03:40;;;;;;;8.57;1.67;;;;;;;11.19;83.22;100803.41;5075383;28;20039;-63
2023/12/26 05:06:06;;;;;;;7.15;1.30;;;;;;;11.22;83.03;100816.78;5081406;28;20012;-63
2023/12/26 05:08:31;;;;;;;5.70;1.30;;;;;;;11.21;82.71;100825.41;5082812;28;20131;-64
2023/12/26 05:10:57;;;;;;;7.20;1.25;;;;;;;11.17;82.46;100821.47;5079222;28;20298;-64
2023/12/26 05:13:22;;;;;;;9.38;1.88;;;;;;;11.20;82.74;100823.69;5081870;28;20032;-64
2023/12/26 05:15:48;;;;;;;6.82;1.60;;;;;;;11.17;82.06;100827.00;5087571;28;20349;-64
2023/12/26 05:18:14;;;;;;;6.90;1.58;;;;;;;11.14;81.44;100813.63;5088104;28;20094;-64
2023/12/26 05:20:39;;;;;;;7.30;1.55;;;;;;;11.16;81.59;100819.75;5088280;28;20027;-64
2023/12/26 05:23:05;;;;;;;7.82;1.90;;;;;;;11.10;81.11;100829.97;5074692;28;20043;-64
2023/12/26 05:25:30;;;;;;;9.93;1.95;;;;;;;11.10;80.41;100837.47;5074612;28;20026;-64
2023/12/26 05:27:55;;;;;;;6.95;1.67;;;;;;;11.01;80.16;100839.84;5086483;28;20429;-63
2023/12/26 05:30:21;;;;;;;6.40;1.70;;;;;;;11.02;80.48;100856.25;5075809;28;20035;-64
2023/12/26 05:32:47;;;;;;;9.48;1.70;;;;;;;10.93;80.06;100851.41;5080953;28;20066;-64
2023/12/26 05:35:12;;;;;;;6.72;1.55;;;;;;;10.98;80.48;100852.31;5088282;28;20532;-63
2023/12/26 05:37:38;;;;;;;4.63;1.40;;;;;;;10.98;80.29;100860.63;5075938;28;20034;-63
2023/12/26 05:40:04;;;;;;;5.63;1.60;;;;;;;10.97;79.39;100863.69;5082619;28;20024;-64
2023/12/26 05:42:29;;;;;;;8.80;1.73;;;;;;;10.97;79.81;100870.06;5089515;28;20083;-64
2023/12/26 05:44:55;;;;;;;7.78;1.80;;;;;;;10.90;78.70;100863.84;5077921;28;20032;-64
2023/12/26 05:47:21;;;;;;;7.13;1.85;;;;;;;10.94;78.66;100875.28;5088938;28;20024;-64
2023/12/26 05:49:46;;;;;;;7.43;1.45;;;;;;;10.93;78.77;100882.78;5072891;28;20486;-64
2023/12/26 05:52:12;;;;;;;6.63;1.40;;;;;;;10.88;77.41;100898.50;5080452;28;20024;-64
2023/12/26 05:54:37;;;;;;;5.13;1.70;;;;;;;10.88;77.46;100915.19;5083933;28;20021;-63
2023/12/26 05:57:03;;;;;;;7.97;1.70;;;;;;;10.87;76.96;100914.34;5080625;28;20041;-64
2023/12/26 05:59:28;;;;;;;7.47;1.77;;;;;;;10.77;75.07;100919.75;5075143;28;20025;-64
2023/12/26 06:01:54;;;;;;;6.88;1.52;;;;;;;10.77;76.39;100928.06;5075611;28;20753;-64
2023/12/26 06:04:19;;;;;;;6.05;1.60;;;;;;;10.75;75.82;100925.53;5074055;28;20036;-64
2023/12/26 06:06:44;;;;;;;6.80;1.52;;;;;;;10.69;75.43;100934.91;5079195;28;20055;-64
2023/12/26 06:09:10;;;;;;;6.50;1.92;;;;;;;10.70;75.81;100931.00;5072997;28;20032;-64
2023/12/26 06:11:35;;;;;;;6.75;1.33;;;;;;;10.72;76.02;100933.53;5081836;28;20509;-64
2023/12/26 06:14:00;;;;;;;4.68;1.75;;;;;;;10.74;74.81;100943.28;5070589;28;20165;-64
2023/12/26 06:16:26;;;;;;;4.50;1.40;;;;;;;10.75;74.95;100933.03;5075573;28;20024;-64
2023/12/26 06:18:51;;;;;;;6.55;1.70;;;;;;;10.74;73.91;100942.47;5075928;28;20050;-65
2023/12/26 06:21:17;;;;;;;7.00;2.10;;;;;;;10.73;73.61;100952.72;5071762;28;20060;-64
2023/12/26 06:23:42;;;;;;;4.72;1.60;;;;;;;10.79;74.01;100961.97;5080154;28;20035;-64
2023/12/26 06:26:10;;;;;;;7.05;1.40;;;;;;;10.70;72.16;100975.44;5076719;28;20024;-64
2023/12/26 06:28:36;;;;;;;5.63;1.45;;;;;;;10.71;71.76;100976.28;5079360;28;20051;-64
2023/12/26 06:31:01;;;;;;;9.23;1.80;;;;;;;10.69;71.49;100975.66;5080444;28;20375;-64
2023/12/26 06:33:27;;;;;;;9.35;1.60;;;;;;;10.70;71.85;100991.25;5069731;28;20024;-63
2023/12/26 06:35:53;;;;;;;8.70;1.50;;;;;;;10.71;71.71;100999.31;5077866;28;20021;-64
2023/12/26 06:38:18;;;;;;;7.88;1.90;;;;;;;10.67;70.77;100994.53;5075843;28;20395;-63
2023/12/26 06:40:43;;;;;;;7.88;1.65;;;;;;;10.68;71.18;100993.41;5081139;28;20039;-64
2023/12/26 06:43:14;;;;;;;8.75;2.67;;;;;;;10.65;71.02;100996.69;5073608;28;20489;-64
2023/12/26 06:45:39;;;;;;;11.50;2.40;;;;;;;10.64;71.19;100992.25;5075581;28;20025;-64
2023/12/26 06:48:05;;;;;;;5.63;1.58;;;;;;;10.65;71.23;100988.38;5079342;28;20023;-64
2023/12/26 06:50:30;;;;;;;7.75;1.75;;;;;;;10.62;70.98;101000.00;5091304;28;20162;-64
2023/12/26 06:52:56;;;;;;;6.60;1.73;;;;;;;10.61;70.90;100992.72;5074850;28;20069;-64
2023/12/26 06:55:21;;;;;;;9.95;1.67;;;;;;;10.55;71.78;100995.41;5074379;28;20030;-64
2023/12/26 06:57:46;;;;;;;7.22;1.77;;;;;;;10.51;71.73;100991.47;5083872;28;20052;-64
2023/12/26 07:00:13;;;;;;;7.22;1.60;;;;;;;10.56;72.31;100999.88;5075671;28;20017;-64
2023/12/26 07:02:39;;;;;;;9.52;2.00;;;;;;;10.51;72.03;100999.78;5085192;28;20423;-64
2023/12/26 07:05:05;;;;;;;7.03;1.58;;;;;;;10.54;72.55;101004.84;5086213;28;20065;-63
2023/12/26 07:07:30;;;;;;;6.13;1.63;;;;;;;10.54;71.84;101009.56;5079256;28;20016;-64
2023/12/26 07:09:55;;;;;;;9.07;2.55;;;;;;;10.55;72.09;101023.19;5084230;28;20036;-64
2023/12/26 07:12:21;;;;;;;8.13;1.98;;;;;;;10.54;72.14;101031.75;5076641;28;20036;-64
2023/12/26 07:14:46;;;;;;;7.10;1.73;;;;;;;10.52;71.49;101045.88;5073162;28;20039;-64
2023/12/26 07:17:11;;;;;;;11.00;1.77;;;;;;;10.52;71.73;101045.03;5074969;28;20078;-63
2023/12/26 07:19:37;;;;;;;11.82;1.92;;;;;;;10.50;71.52;101053.63;5077456;28;20112;-64
2023/12/26 07:22:02;;;;;;;8.50;2.22;;;;;;;10.49;71.26;101057.50;5074233;28;20379;-64
2023/12/26 07:24:27;;;;;;;11.00;2.05;;;;;;;10.48;71.13;101066.03;5083226;28;20047;-64
2023/12/26 07:26:53;;;;;;;8.43;1.92;;;;;;;10.46;70.74;101079.34;5087968;28;20032;-64
2023/12/26 07:29:18;;;;;;;7.78;1.75;;;;;;;10.49;70.49;101070.50;5077979;28;20122;-64
2023/12/26 07:31:43;;;;;;;11.07;1.70;;;;;;;10.49;70.42;101076.03;5077947;28;20051;-64
2023/12/26 07:34:09;;;;;;;8.48;2.05;;;;;;;10.45;70.40;101072.09;5084439;28;20028;-64
2023/12/26 07:36:35;;;;;;;8.63;2.10;;;;;;;10.46;70.27;101074.63;5077412;28;20049;-64
2023/12/26 07:39:00;;;;;;;6.18;1.83;;;;;;;10.48;69.81;101069.66;5081432;28;20108;-64
2023/12/26 07:41:26;;;;;;;9.05;1.90;;;;;;;10.49;70.32;101076.03;5075575;28;20031;-63
2023/12/26 07:43:53;;;;;;;9.98;1.98;;;;;;;10.45;69.66;101084.06;5075324;28;20161;-64
2023/12/26 07:46:20;;;;;;;6.03;1.70;;;;;;;10.43;69.35;101083.44;5073698;28;20054;-64
2023/12/26 07:48:46;;;;;;;7.35;1.73;;;;;;;10.43;69.80;101100.09;5081291;28;20125;-64
2023/12/26 07:51:11;;;;;;;8.90;1.65;;;;;;;10.44;69.53;101093.44;5076938;28;20142;-64
2023/12/26 07:53:37;;;;;;;11.80;2.33;;;;;;;10.41;69.09;101102.25;5077021;28;20050;-64
2023/12/26 07:56:02;;;;;;;9.65;2.03;;;;;;;10.45;69.59;101119.25;5073891;28;20463;-64
2023/12/26 07:58:28;;;;;;;7.60;1.65;;;;;;;10.39;69.27;101129.44;5082048;28;20043;-64
2023/12/26 08:00:53;;;;;;;8.35;2.15;;;;;;;10.42;69.60;101122.56;5075149;28;20040;-64
2023/12/26 08:03:18;;;;;;;9.88;2.08;;;;;;;10.41;69.68;101135.56;5081902;28;20027;-64
2023/12/26 08:05:44;;;;;;;11.07;2.55;;;;;;;10.38;69.23;101138.84;5076948;28;20070;-64
2023/12/26 08:08:11;;;;;;;10.73;2.13;;;;;;;10.37;68.85;101134.34;5081303;28;20495;-64
2023/12/26 08:10:36;;;;;;;6.15;2.00;;;;;;;10.35;69.14;101138.50;5074800;28;20057;-64
2023/12/26 08:13:02;;;;;;;12.68;2.42;;;;;;;10.33;69.22;101141.50;5081062;28;20676;-64
2023/12/26 08:15:27;;;;;;;11.32;1.95;;;;;;;10.32;69.34;101137.03;5079161;28;20031;-64
2023/12/26 08:17:52;;;;;;;11.93;2.40;;;;;;;10.27;69.21;101134.16;5080132;28;20019;-62
2023/12/26 08:20:20;;;;;;;8.68;2.65;;;;;;;10.30;70.15;101147.56;5074581;28;20107;-62
2023/12/26 08:22:46;;;;;;;10.77;2.20;;;;;;;10.30;70.16;101153.09;5081259;28;20032;-62
2023/12/26 08:25:11;;;;;;;10.15;1.90;;;;;;;10.32;70.97;101159.22;5079961;28;20032;-63
2023/12/26 08:27:37;;;;;;;8.43;2.28;;;;;;;10.26;70.48;101163.00;5080530;28;20076;-63
2023/12/26 08:30:03;;;;;;;9.27;2.20;;;;;;;10.27;70.72;101173.00;5079861;28;20094;-63
2023/12/26 08:32:29;;;;;;;10.55;2.20;;;;;;;10.31;71.11;101182.53;5072308;28;20499;-62
2023/12/26 08:34:54;;;;;;;13.43;2.42;;;;;;;10.27;70.98;101190.50;5074273;28;20044;-62
2023/12/26 08:37:20;;;;;;;8.45;2.13;;;;;;;10.29;72.40;101196.63;5075950;28;20073;-62
2023/12/26 08:39:45;;;;;;;11.77;2.20;;;;;;;10.26;70.98;101202.69;5079415;28;20059;-61
2023/12/26 08:42:10;;;;;;;10.45;2.28;;;;;;;10.30;71.17;101205.81;5087761;28;20028;-60
2023/12/26 08:44:36;;;;;;;10.15;2.88;;;;;;;10.28;71.03;101213.53;5079148;28;20031;-61
2023/12/26 08:47:05;;;;;;;8.32;2.10;;;;;;;10.28;71.38;101221.84;5075559;28;20024;-59
2023/12/26 08:49:30;;;;;;;12.48;2.65;;;;;;;10.23;70.85;101225.31;5080775;28;20044;-62
2023/12/26 08:51:56;;;;;;;14.85;2.40;;;;;;;10.26;70.66;101232.34;5076634;28;20025;-61
2023/12/26 08:54:22;;;;;;;7.63;2.05;;;;;;;10.25;70.82;101236.19;5078187;28;20025;-61
2023/12/26 08:56:48;;;;;;;11.18;2.33;;;;;;;10.24;70.74;101242.81;5073550;28;20372;-61
2023/12/26 08:59:13;;;;;;;10.45;2.08;;;;;;;10.25;71.05;101230.66;5072064;28;20025;-61
2023/12/26 09:01:39;;;;;;;11.43;3.13;;;;;;;10.14;70.73;101231.44;5067584;28;20028;-62
2023/12/26 09:04:04;;;;;;;9.57;2.58;;;;;;;10.20;71.20;101230.50;5081937;28;20054;-62
2023/12/26 09:06:33;;;;;;;9.07;2.20;;;;;;;10.23;71.34;101247.50;5073475;28;20024;-62
2023/12/26 09:08:58;;;;;;;9.55;2.10;;;;;;;10.26;71.29;101251.78;5074051;28;20020;-62
2023/12/26 09:11:23;;;;;;;7.78;2.15;;;;;;;10.27;70.94;101264.56;5072486;28;20181;-62
2023/12/26 09:13:49;;;;;;;9.25;2.55;;;;;;;10.30;70.75;101264.91;5079558;28;20024;-63
2023/12/26 09:16:14;;;;;;;9.35;2.53;;;;;;;10.34;70.86;101270.00;5072901;28;20108;-63
2023/12/26 09:18:40;;;;;;;12.50;2.80;;;;;;;10.36;71.03;101273.34;5070478;28;20468;-63
2023/12/26 09:21:06;;;;;;;6.63;2.20;;;;;;;10.38;70.94;101269.25;5082950;28;20152;-63
2023/12/26 09:23:31;;;;;;;10.52;2.65;;;;;;;10.42;70.81;101266.84;5069622;28;20403;-63
2023/12/26 09:25:57;;;;;;;7.05;2.28;;;;;;;10.42;70.31;101278.78;5082733;28;20464;-64
2023/12/26 09:28:28;;;;;;;8.80;2.35;;;;;;;10.42;69.95;101283.50;5076413;28;20048;-64
2023/12/26 09:30:53;;;;;;;18.87;2.63;;;;;;;10.42;69.39;101286.28;5080947;28;20024;-62
2023/12/26 09:33:19;;;;;;;9.88;2.00;;;;;;;10.42;70.18;101289.06;5077821;28;20092;-61
2023/12/26 09:35:44;;;;;;;10.30;2.60;;;;;;;10.42;69.94;101295.44;5072753;28;20032;-62
2023/12/26 09:38:09;;;;;;;8.23;2.15;;;;;;;10.43;69.75;101301.84;5073783;28;20523;-61
2023/12/26 09:40:36;;;;;;;17.08;3.63;;;;;;;10.66;76.13;101310.16;5070811;28;20036;-61
2023/12/26 09:43:03;;;;;;;12.90;2.90;;;;;;;10.63;70.26;101318.97;5072948;28;20024;-61
2023/12/26 09:45:30;;;;;;;16.02;3.50;;;;;;;10.67;69.36;101325.72;5071103;28;20074;-62
2023/12/26 09:47:55;;;;;;;12.55;2.63;;;;;;;10.61;68.85;101323.94;5073066;28;20024;-61
2023/12/26 09:50:21;;;;;;;15.02;3.08;;;;;;;10.61;68.94;101332.25;5072330;28;20028;-61
2023/12/26 09:52:56;;;;;;;13.40;2.60;;;;;;;10.52;68.21;101337.28;5074180;28;21499;-62
2023/12/26 09:55:22;;;;;;;12.23;2.90;;;;;;;10.53;68.64;101340.91;5073245;28;20028;-60
2023/12/26 09:57:48;;;;;;;11.25;3.00;;;;;;;10.48;68.92;101344.41;5077954;28;20032;-62
2023/12/26 10:00:17;;;;;;;8.02;2.50;;;;;;;10.48;68.79;101349.13;5077711;28;20024;-58
2023/12/26 10:02:42;;;;;;;11.75;2.60;;;;;;;10.43;68.96;101355.41;5085232;28;20067;-63
2023/12/26 10:05:09;;;;;;;10.45;2.70;;;;;;;10.45;68.62;101367.13;5078163;28;20444;-58
2023/12/26 10:07:34;;;;;;;17.58;2.85;;;;;;;10.42;68.32;101364.81;5076118;28;20032;-62
2023/12/26 10:10:00;;;;;;;12.73;3.22;;;;;;;10.63;71.15;101362.53;5081260;28;20026;-62
2023/12/26 10:12:29;;;;;;;10.45;2.95;;;;;;;10.89;71.48;101367.59;5078887;28;20398;-62
2023/12/26 10:14:58;;;;;;;14.65;3.28;;;;;;;11.04;68.74;101361.53;5073525;28;20024;-60
2023/12/26 10:17:27;;;;;;;12.55;3.22;;;;;;;11.17;67.98;101366.84;5074419;28;20036;-61
2023/12/26 10:19:59;;;;;;;12.70;3.00;;;;;;;11.29;68.23;101375.16;5076104;28;20035;-61
2023/12/26 10:22:25;;;;;;;13.85;2.70;;;;;;;11.41;67.17;101375.97;5076865;28;20052;-61
2023/12/26 10:24:51;;;;;;;9.65;2.53;;;;;;;11.52;66.91;101386.22;5079499;28;20058;-61
2023/12/26 10:27:17;;;;;;;11.65;2.67;;;;;;;11.62;66.81;101387.50;5083103;28;20035;-61
2023/12/26 10:29:54;;;;;;;11.68;2.60;;;;;;;11.72;66.29;101398.84;5075080;28;20048;-61
2023/12/26 10:32:24;;;;;;;10.55;2.13;;;;;;;11.78;65.71;101398.66;5076553;28;20017;-61
2023/12/26 10:34:50;;;;;;;14.43;2.50;;;;;;;11.83;65.66;101389.63;5075340;28;20032;-61
2023/12/26 10:37:19;;;;;;;13.65;2.92;;;;;;;11.88;65.55;101398.06;5078646;28;20039;-62
2023/12/26 10:39:45;;;;;;;10.93;2.70;;;;;;;11.94;65.95;101385.94;5077951;28;20112;-64
2023/12/26 10:42:12;;;;;;;13.50;2.45;;;;;;;12.01;64.69;101386.63;5080436;28;20048;-63
2023/12/26 10:45:06;;;;;;;7.28;2.47;;;;;;;12.07;66.09;101384.81;5075665;28;20036;-64
2023/12/26 10:47:33;;;;;;;8.57;2.25;;;;;;;12.06;64.95;101385.88;5081144;28;20033;-58
2023/12/26 10:50:02;;;;;;;11.98;2.50;;;;;;;12.13;65.38;101375.44;5080561;28;20040;-64
2023/12/26 10:52:29;;;;;;;9.65;2.63;;;;;;;12.12;64.01;101372.91;5073742;28;20032;-62
2023/12/26 10:54:58;;;;;;;10.13;2.60;;;;;;;12.16;65.01;101374.94;5077065;28;20367;-62
2023/12/26 10:57:24;;;;;;;7.75;2.25;;;;;;;12.18;64.23;101378.34;5074743;28;20040;-64
2023/12/26 13:51:44;;;;;;;12.02;2.92;;;;;;;11.18;66.36;101563.03;5077530;28;20533;-65
2023/12/26 13:54:11;;;;;;;10.32;2.10;;;;;;;11.11;65.67;101567.00;5072984;28;20391;-65
2023/12/26 13:56:36;;;;;;;15.30;2.50;;;;;;;11.11;66.06;101578.09;5069219;28;20032;-64
2023/12/26 13:59:02;;;;;;;11.18;2.30;;;;;;;11.04;65.35;101564.31;5069664;28;20076;-64
2023/12/26 14:01:28;;;;;;;13.40;2.53;;;;;;;11.02;65.90;101575.69;5070065;28;20054;-64
2023/12/26 14:03:55;;;;;;;8.93;2.33;;;;;;;11.00;65.88;101575.09;5074176;28;20038;-64
2023/12/26 14:06:20;;;;;;;10.70;2.05;;;;;;;11.00;65.58;101577.00;5069602;28;20024;-64
2023/12/26 14:08:49;;;;;;;9.60;2.90;;;;;;;11.01;65.16;101581.50;5075384;28;20035;-64
2023/12/26 14:11:18;;;;;;;13.45;2.55;;;;;;;11.02;65.62;101589.56;5073625;28;20128;-64